sensor_id;sensor_type;location;lat;lon;timestamp;temperature;humidity
47600;DHT22;33323;52.124;6.018;2022-09-13T00:01:44;17.80;99.90
47600;DHT22;33323;52.124;6.018;2022-09-13T00:04:12;17.80;99.90
47600;DHT22;33323;52.124;6.018;2022-09-13T00:06:39;17.70;99.90
47600;DHT22;33323;52.124;6.018;2022-09-13T00:09:05;17.70;99.90
47600;DHT22;33323;52.124;6.018;2022-09-13T00:11:32;17.80;99.90
47600;DHT22;33323;52.124;6.018;2022-09-13T00:13:59;18.00;99.90
47600;DHT22;33323;52.124;6.018;2022-09-13T00:16:27;18.00;99.90
47600;DHT22;33323;52.124;6.018;2022-09-13T00:18:55;18.00;99.30
47600;DHT22;33323;52.124;6.018;2022-09-13T00:21:23;18.00;99.80
47600;DHT22;33323;52.124;6.018;2022-09-13T00:23:53;18.00;99.90
47600;DHT22;33323;52.124;6.018;2022-09-13T00:26:25;17.90;99.90
47600;DHT22;33323;52.124;6.018;2022-09-13T00:28:56;17.80;99.90
47600;DHT22;33323;52.124;6.018;2022-09-13T00:31:25;17.80;99.90
47600;DHT22;33323;52.124;6.018;2022-09-13T00:33:56;17.70;99.90
47600;DHT22;33323;52.124;6.018;2022-09-13T00:36:25;17.70;99.90
47600;DHT22;33323;52.124;6.018;2022-09-13T00:38:51;17.70;99.90
47600;DHT22;33323;52.124;6.018;2022-09-13T00:41:19;17.70;99.90
47600;DHT22;33323;52.124;6.018;2022-09-13T00:46:25;17.70;99.90
47600;DHT22;33323;52.124;6.018;2022-09-13T00:49:21;17.70;99.20
47600;DHT22;33323;52.124;6.018;2022-09-13T00:51:58;17.80;99.70
47600;DHT22;33323;52.124;6.018;2022-09-13T00:54:31;18.00;98.40
47600;DHT22;33323;52.124;6.018;2022-09-13T00:57:02;18.00;96.20
47600;DHT22;33323;52.124;6.018;2022-09-13T00:59:38;18.20;97.50
47600;DHT22;33323;52.124;6.018;2022-09-13T01:02:08;18.10;98.50
47600;DHT22;33323;52.124;6.018;2022-09-13T01:04:35;18.00;98.50
47600;DHT22;33323;52.124;6.018;2022-09-13T01:07:08;18.00;99.90
47600;DHT22;33323;52.124;6.018;2022-09-13T01:09:39;17.80;99.80
47600;DHT22;33323;52.124;6.018;2022-09-13T01:12:34;17.80;99.90
47600;DHT22;33323;52.124;6.018;2022-09-13T01:15:05;17.80;99.90
47600;DHT22;33323;52.124;6.018;2022-09-13T01:17:33;17.80;99.90
47600;DHT22;33323;52.124;6.018;2022-09-13T01:20:02;17.80;99.90
47600;DHT22;33323;52.124;6.018;2022-09-13T01:44:31;17.60;99.90
47600;DHT22;33323;52.124;6.018;2022-09-13T01:50:43;17.70;99.20
47600;DHT22;33323;52.124;6.018;2022-09-13T01:53:32;17.80;98.80
47600;DHT22;33323;52.124;6.018;2022-09-13T01:56:53;17.70;99.10
47600;DHT22;33323;52.124;6.018;2022-09-13T02:02:48;17.60;99.90
47600;DHT22;33323;52.124;6.018;2022-09-13T02:08:18;17.30;99.90
47600;DHT22;33323;52.124;6.018;2022-09-13T02:10:52;17.30;99.90
47600;DHT22;33323;52.124;6.018;2022-09-13T02:13:34;17.30;99.90
47600;DHT22;33323;52.124;6.018;2022-09-13T02:16:18;17.30;99.90
47600;DHT22;33323;52.124;6.018;2022-09-13T02:18:54;17.40;99.90
47600;DHT22;33323;52.124;6.018;2022-09-13T02:21:28;17.30;99.90
47600;DHT22;33323;52.124;6.018;2022-09-13T02:24:06;17.30;99.90
47600;DHT22;33323;52.124;6.018;2022-09-13T02:26:36;17.30;99.90
47600;DHT22;33323;52.124;6.018;2022-09-13T02:29:11;17.20;99.90
47600;DHT22;33323;52.124;6.018;2022-09-13T02:31:48;17.20;99.90
47600;DHT22;33323;52.124;6.018;2022-09-13T02:34:23;17.10;99.90
47600;DHT22;33323;52.124;6.018;2022-09-13T02:37:13;17.00;99.90
47600;DHT22;33323;52.124;6.018;2022-09-13T02:39:47;17.10;99.90
47600;DHT22;33323;52.124;6.018;2022-09-13T02:44:50;17.10;99.90
47600;DHT22;33323;52.124;6.018;2022-09-13T02:53:49;17.10;99.90
47600;DHT22;33323;52.124;6.018;2022-09-13T02:58:57;17.10;99.90
47600;DHT22;33323;52.124;6.018;2022-09-13T03:01:25;17.20;99.90
47600;DHT22;33323;52.124;6.018;2022-09-13T03:03:53;17.50;99.90
47600;DHT22;33323;52.124;6.018;2022-09-13T03:06:24;17.50;99.90
47600;DHT22;33323;52.124;6.018;2022-09-13T03:08:56;17.60;99.90
47600;DHT22;33323;52.124;6.018;2022-09-13T03:11:46;17.50;99.90
47600;DHT22;33323;52.124;6.018;2022-09-13T03:21:14;17.20;99.90
47600;DHT22;33323;52.124;6.018;2022-09-13T03:29:26;17.10;99.90
47600;DHT22;33323;52.124;6.018;2022-09-13T03:32:15;17.10;99.90
47600;DHT22;33323;52.124;6.018;2022-09-13T03:43:30;16.90;99.90
47600;DHT22;33323;52.124;6.018;2022-09-13T03:46:10;17.00;99.90
47600;DHT22;33323;52.124;6.018;2022-09-13T03:48:39;16.90;99.90
47600;DHT22;33323;52.124;6.018;2022-09-13T03:51:09;16.90;99.90
47600;DHT22;33323;52.124;6.018;2022-09-13T03:53:41;16.90;99.90
47600;DHT22;33323;52.124;6.018;2022-09-13T03:56:15;17.10;99.90
47600;DHT22;33323;52.124;6.018;2022-09-13T03:58:49;17.10;99.90
47600;DHT22;33323;52.124;6.018;2022-09-13T04:01:19;17.10;99.90
47600;DHT22;33323;52.124;6.018;2022-09-13T04:03:48;17.00;99.90
47600;DHT22;33323;52.124;6.018;2022-09-13T04:06:22;16.90;99.90
47600;DHT22;33323;52.124;6.018;2022-09-13T04:08:48;16.90;99.90
47600;DHT22;33323;52.124;6.018;2022-09-13T04:11:16;16.80;99.90
47600;DHT22;33323;52.124;6.018;2022-09-13T04:13:42;16.90;99.90
47600;DHT22;33323;52.124;6.018;2022-09-13T04:16:09;16.90;99.90
47600;DHT22;33323;52.124;6.018;2022-09-13T04:18:36;16.80;99.90
47600;DHT22;33323;52.124;6.018;2022-09-13T04:21:03;16.70;99.90
47600;DHT22;33323;52.124;6.018;2022-09-13T04:23:31;16.60;99.90
47600;DHT22;33323;52.124;6.018;2022-09-13T04:26:02;16.50;99.90
47600;DHT22;33323;52.124;6.018;2022-09-13T04:28:29;16.60;99.90
47600;DHT22;33323;52.124;6.018;2022-09-13T04:30:56;16.60;99.90
47600;DHT22;33323;52.124;6.018;2022-09-13T04:33:23;16.70;99.90
47600;DHT22;33323;52.124;6.018;2022-09-13T04:35:57;16.60;99.90
47600;DHT22;33323;52.124;6.018;2022-09-13T04:38:25;16.70;99.90
47600;DHT22;33323;52.124;6.018;2022-09-13T04:40:53;16.70;99.90
47600;DHT22;33323;52.124;6.018;2022-09-13T04:43:21;16.70;99.90
47600;DHT22;33323;52.124;6.018;2022-09-13T04:45:49;16.70;99.90
47600;DHT22;33323;52.124;6.018;2022-09-13T04:48:16;16.70;99.90
47600;DHT22;33323;52.124;6.018;2022-09-13T04:50:43;16.70;99.90
47600;DHT22;33323;52.124;6.018;2022-09-13T04:53:10;16.70;99.90
47600;DHT22;33323;52.124;6.018;2022-09-13T04:55:37;16.70;99.90
47600;DHT22;33323;52.124;6.018;2022-09-13T04:58:04;16.70;99.90
47600;DHT22;33323;52.124;6.018;2022-09-13T05:00:31;16.80;99.90
47600;DHT22;33323;52.124;6.018;2022-09-13T05:03:00;16.80;99.90
47600;DHT22;33323;52.124;6.018;2022-09-13T05:05:27;16.70;99.90
47600;DHT22;33323;52.124;6.018;2022-09-13T05:07:54;16.70;99.90
47600;DHT22;33323;52.124;6.018;2022-09-13T05:10:21;16.60;99.90
47600;DHT22;33323;52.124;6.018;2022-09-13T05:12:49;16.60;99.90
47600;DHT22;33323;52.124;6.018;2022-09-13T05:15:15;16.60;99.90
47600;DHT22;33323;52.124;6.018;2022-09-13T05:17:42;16.60;99.90
47600;DHT22;33323;52.124;6.018;2022-09-13T05:20:09;16.60;99.90
47600;DHT22;33323;52.124;6.018;2022-09-13T05:22:37;16.80;99.90
47600;DHT22;33323;52.124;6.018;2022-09-13T05:25:04;16.90;99.90
47600;DHT22;33323;52.124;6.018;2022-09-13T05:27:31;17.00;99.90
47600;DHT22;33323;52.124;6.018;2022-09-13T05:29:58;17.00;99.90
47600;DHT22;33323;52.124;6.018;2022-09-13T05:32:26;17.00;99.90
47600;DHT22;33323;52.124;6.018;2022-09-13T05:34:53;16.90;99.90
47600;DHT22;33323;52.124;6.018;2022-09-13T05:37:20;16.80;99.90
47600;DHT22;33323;52.124;6.018;2022-09-13T05:39:47;16.80;99.90
47600;DHT22;33323;52.124;6.018;2022-09-13T05:42:34;16.80;99.90
47600;DHT22;33323;52.124;6.018;2022-09-13T05:45:01;16.80;99.90
47600;DHT22;33323;52.124;6.018;2022-09-13T05:47:28;16.90;99.90
47600;DHT22;33323;52.124;6.018;2022-09-13T05:49:55;17.00;99.90
47600;DHT22;33323;52.124;6.018;2022-09-13T05:52:36;16.90;99.90
47600;DHT22;33323;52.124;6.018;2022-09-13T05:55:03;16.90;99.90
47600;DHT22;33323;52.124;6.018;2022-09-13T05:57:30;17.00;99.90
47600;DHT22;33323;52.124;6.018;2022-09-13T05:59:57;17.00;99.90
47600;DHT22;33323;52.124;6.018;2022-09-13T06:02:24;17.20;99.90
47600;DHT22;33323;52.124;6.018;2022-09-13T06:04:51;17.40;99.90
47600;DHT22;33323;52.124;6.018;2022-09-13T06:07:18;17.40;99.90
47600;DHT22;33323;52.124;6.018;2022-09-13T06:09:45;17.30;99.90
47600;DHT22;33323;52.124;6.018;2022-09-13T06:12:12;17.30;99.90
47600;DHT22;33323;52.124;6.018;2022-09-13T06:14:39;17.40;99.90
47600;DHT22;33323;52.124;6.018;2022-09-13T06:17:06;17.50;99.90
47600;DHT22;33323;52.124;6.018;2022-09-13T06:19:33;17.60;99.90
47600;DHT22;33323;52.124;6.018;2022-09-13T06:22:00;17.70;99.90
47600;DHT22;33323;52.124;6.018;2022-09-13T06:24:27;17.70;99.90
47600;DHT22;33323;52.124;6.018;2022-09-13T06:26:54;17.70;99.90
47600;DHT22;33323;52.124;6.018;2022-09-13T06:29:21;17.70;99.90
47600;DHT22;33323;52.124;6.018;2022-09-13T06:31:48;17.80;99.90
47600;DHT22;33323;52.124;6.018;2022-09-13T06:34:15;17.90;99.90
47600;DHT22;33323;52.124;6.018;2022-09-13T06:36:43;17.90;99.90
47600;DHT22;33323;52.124;6.018;2022-09-13T06:39:10;17.90;99.90
47600;DHT22;33323;52.124;6.018;2022-09-13T06:41:37;18.00;99.90
47600;DHT22;33323;52.124;6.018;2022-09-13T06:44:04;18.10;99.90
47600;DHT22;33323;52.124;6.018;2022-09-13T06:46:33;18.20;99.90
47600;DHT22;33323;52.124;6.018;2022-09-13T06:49:05;18.30;99.90
47600;DHT22;33323;52.124;6.018;2022-09-13T06:51:34;18.30;99.90
47600;DHT22;33323;52.124;6.018;2022-09-13T06:54:02;18.30;99.90
47600;DHT22;33323;52.124;6.018;2022-09-13T06:56:32;18.40;99.90
47600;DHT22;33323;52.124;6.018;2022-09-13T06:59:02;18.50;99.90
47600;DHT22;33323;52.124;6.018;2022-09-13T07:01:34;18.40;99.90
47600;DHT22;33323;52.124;6.018;2022-09-13T07:04:11;18.50;99.90
47600;DHT22;33323;52.124;6.018;2022-09-13T07:06:45;18.50;99.90
47600;DHT22;33323;52.124;6.018;2022-09-13T07:09:15;18.60;99.90
47600;DHT22;33323;52.124;6.018;2022-09-13T07:11:45;18.50;99.90
47600;DHT22;33323;52.124;6.018;2022-09-13T07:14:17;18.40;99.90
47600;DHT22;33323;52.124;6.018;2022-09-13T07:16:46;18.40;99.90
47600;DHT22;33323;52.124;6.018;2022-09-13T07:19:15;18.50;99.90
47600;DHT22;33323;52.124;6.018;2022-09-13T07:21:44;18.50;99.90
47600;DHT22;33323;52.124;6.018;2022-09-13T07:24:11;18.60;99.90
47600;DHT22;33323;52.124;6.018;2022-09-13T07:26:38;18.60;99.90
47600;DHT22;33323;52.124;6.018;2022-09-13T07:29:07;18.90;99.90
47600;DHT22;33323;52.124;6.018;2022-09-13T07:31:38;18.90;99.90
47600;DHT22;33323;52.124;6.018;2022-09-13T07:34:11;18.90;99.90
47600;DHT22;33323;52.124;6.018;2022-09-13T07:36:39;19.00;99.90
47600;DHT22;33323;52.124;6.018;2022-09-13T07:39:07;19.10;99.90
47600;DHT22;33323;52.124;6.018;2022-09-13T07:41:41;19.20;99.90
47600;DHT22;33323;52.124;6.018;2022-09-13T07:44:10;19.30;99.90
47600;DHT22;33323;52.124;6.018;2022-09-13T07:46:38;19.30;99.90
47600;DHT22;33323;52.124;6.018;2022-09-13T07:49:13;19.20;99.90
47600;DHT22;33323;52.124;6.018;2022-09-13T07:51:43;19.20;99.90
47600;DHT22;33323;52.124;6.018;2022-09-13T07:54:13;19.10;99.90
47600;DHT22;33323;52.124;6.018;2022-09-13T07:56:41;19.30;99.90
47600;DHT22;33323;52.124;6.018;2022-09-13T07:59:13;19.30;99.90
47600;DHT22;33323;52.124;6.018;2022-09-13T08:01:50;19.20;99.90
47600;DHT22;33323;52.124;6.018;2022-09-13T08:04:21;19.20;99.90
47600;DHT22;33323;52.124;6.018;2022-09-13T08:06:50;19.20;99.90
47600;DHT22;33323;52.124;6.018;2022-09-13T08:09:17;19.30;99.90
47600;DHT22;33323;52.124;6.018;2022-09-13T08:11:50;19.30;99.90
47600;DHT22;33323;52.124;6.018;2022-09-13T08:14:20;19.10;99.90
47600;DHT22;33323;52.124;6.018;2022-09-13T08:16:48;19.20;99.90
47600;DHT22;33323;52.124;6.018;2022-09-13T08:19:16;19.20;99.90
47600;DHT22;33323;52.124;6.018;2022-09-13T08:21:45;19.40;99.90
47600;DHT22;33323;52.124;6.018;2022-09-13T08:24:18;19.50;99.90
47600;DHT22;33323;52.124;6.018;2022-09-13T08:26:47;19.70;99.90
47600;DHT22;33323;52.124;6.018;2022-09-13T08:29:15;19.80;99.90
47600;DHT22;33323;52.124;6.018;2022-09-13T08:31:42;19.90;99.90
47600;DHT22;33323;52.124;6.018;2022-09-13T08:34:11;20.20;99.90
47600;DHT22;33323;52.124;6.018;2022-09-13T08:36:40;20.80;99.90
47600;DHT22;33323;52.124;6.018;2022-09-13T08:39:08;21.20;99.10
47600;DHT22;33323;52.124;6.018;2022-09-13T08:44:33;22.00;97.00
47600;DHT22;33323;52.124;6.018;2022-09-13T08:49:55;21.70;96.50
47600;DHT22;33323;52.124;6.018;2022-09-13T08:52:29;21.70;97.10
47600;DHT22;33323;52.124;6.018;2022-09-13T08:55:07;21.50;97.10
47600;DHT22;33323;52.124;6.018;2022-09-13T09:01:12;21.50;98.50
47600;DHT22;33323;52.124;6.018;2022-09-13T09:04:04;21.40;97.50
47600;DHT22;33323;52.124;6.018;2022-09-13T09:06:40;21.60;97.10
47600;DHT22;33323;52.124;6.018;2022-09-13T09:09:14;21.90;97.40
47600;DHT22;33323;52.124;6.018;2022-09-13T09:14:51;21.90;96.40
47600;DHT22;33323;52.124;6.018;2022-09-13T09:17:44;21.90;95.70
47600;DHT22;33323;52.124;6.018;2022-09-13T09:20:25;21.60;96.50
47600;DHT22;33323;52.124;6.018;2022-09-13T09:22:54;21.60;96.90
47600;DHT22;33323;52.124;6.018;2022-09-13T09:25:23;21.60;96.50
47600;DHT22;33323;52.124;6.018;2022-09-13T09:27:52;21.80;95.30
47600;DHT22;33323;52.124;6.018;2022-09-13T09:30:20;21.80;95.90
47600;DHT22;33323;52.124;6.018;2022-09-13T09:35:55;22.00;94.30
47600;DHT22;33323;52.124;6.018;2022-09-13T09:38:38;21.60;95.40
47600;DHT22;33323;52.124;6.018;2022-09-13T09:41:27;21.30;95.40
47600;DHT22;33323;52.124;6.018;2022-09-13T09:44:05;21.20;96.00
47600;DHT22;33323;52.124;6.018;2022-09-13T09:46:43;21.10;96.20
47600;DHT22;33323;52.124;6.018;2022-09-13T09:49:20;21.00;97.10
47600;DHT22;33323;52.124;6.018;2022-09-13T09:52:20;21.10;97.00
47600;DHT22;33323;52.124;6.018;2022-09-13T09:54:49;21.20;97.00
47600;DHT22;33323;52.124;6.018;2022-09-13T09:57:17;21.40;97.10
47600;DHT22;33323;52.124;6.018;2022-09-13T09:59:46;21.60;97.00
47600;DHT22;33323;52.124;6.018;2022-09-13T10:02:20;21.70;96.20
47600;DHT22;33323;52.124;6.018;2022-09-13T10:04:55;21.70;95.50
47600;DHT22;33323;52.124;6.018;2022-09-13T10:07:27;21.40;96.00
47600;DHT22;33323;52.124;6.018;2022-09-13T10:09:59;21.50;97.20
47600;DHT22;33323;52.124;6.018;2022-09-13T10:12:34;21.50;97.30
47600;DHT22;33323;52.124;6.018;2022-09-13T10:15:11;21.50;96.70
47600;DHT22;33323;52.124;6.018;2022-09-13T10:17:41;21.60;97.10
47600;DHT22;33323;52.124;6.018;2022-09-13T10:22:40;21.80;97.10
47600;DHT22;33323;52.124;6.018;2022-09-13T10:25:21;22.00;95.20
47600;DHT22;33323;52.124;6.018;2022-09-13T10:27:55;22.00;96.00
47600;DHT22;33323;52.124;6.018;2022-09-13T10:30:34;21.90;95.60
47600;DHT22;33323;52.124;6.018;2022-09-13T10:33:04;21.90;96.00
47600;DHT22;33323;52.124;6.018;2022-09-13T10:35:32;21.90;95.40
47600;DHT22;33323;52.124;6.018;2022-09-13T10:37:59;21.70;94.90
47600;DHT22;33323;52.124;6.018;2022-09-13T10:40:31;21.70;94.10
47600;DHT22;33323;52.124;6.018;2022-09-13T10:43:01;21.70;94.10
47600;DHT22;33323;52.124;6.018;2022-09-13T10:45:30;21.60;93.60
47600;DHT22;33323;52.124;6.018;2022-09-13T10:48:18;21.30;94.40
47600;DHT22;33323;52.124;6.018;2022-09-13T10:51:07;21.40;94.70
47600;DHT22;33323;52.124;6.018;2022-09-13T10:53:47;21.50;94.40
47600;DHT22;33323;52.124;6.018;2022-09-13T10:56:20;21.70;93.90
47600;DHT22;33323;52.124;6.018;2022-09-13T10:58:48;21.80;95.10
47600;DHT22;33323;52.124;6.018;2022-09-13T11:14:27;22.80;90.00
47600;DHT22;33323;52.124;6.018;2022-09-13T11:20:17;22.20;90.30
47600;DHT22;33323;52.124;6.018;2022-09-13T11:26:26;22.30;90.20
47600;DHT22;33323;52.124;6.018;2022-09-13T11:43:10;23.10;88.50
47600;DHT22;33323;52.124;6.018;2022-09-13T11:57:49;24.50;76.20
47600;DHT22;33323;52.124;6.018;2022-09-13T12:00:20;24.30;75.30
47600;DHT22;33323;52.124;6.018;2022-09-13T12:03:11;24.10;73.90
47600;DHT22;33323;52.124;6.018;2022-09-13T12:06:09;23.80;70.00
47600;DHT22;33323;52.124;6.018;2022-09-13T12:08:56;24.10;75.50
47600;DHT22;33323;52.124;6.018;2022-09-13T12:11:39;24.50;69.50
47600;DHT22;33323;52.124;6.018;2022-09-13T12:14:19;24.50;68.70
47600;DHT22;33323;52.124;6.018;2022-09-13T12:16:56;24.60;68.10
47600;DHT22;33323;52.124;6.018;2022-09-13T12:19:43;24.90;61.60
47600;DHT22;33323;52.124;6.018;2022-09-13T12:22:12;24.70;61.80
47600;DHT22;33323;52.124;6.018;2022-09-13T12:24:47;24.70;64.30
47600;DHT22;33323;52.124;6.018;2022-09-13T12:30:19;24.70;65.00
47600;DHT22;33323;52.124;6.018;2022-09-13T12:32:48;24.40;58.30
47600;DHT22;33323;52.124;6.018;2022-09-13T12:35:30;24.30;57.60
47600;DHT22;33323;52.124;6.018;2022-09-13T12:41:03;24.10;57.90
47600;DHT22;33323;52.124;6.018;2022-09-13T12:43:46;24.50;60.10
47600;DHT22;33323;52.124;6.018;2022-09-13T12:56:44;25.00;54.80
47600;DHT22;33323;52.124;6.018;2022-09-13T13:02:37;25.30;52.00
47600;DHT22;33323;52.124;6.018;2022-09-13T13:07:56;25.30;50.30
47600;DHT22;33323;52.124;6.018;2022-09-13T13:10:34;25.10;51.10
47600;DHT22;33323;52.124;6.018;2022-09-13T13:13:14;24.90;53.60
47600;DHT22;33323;52.124;6.018;2022-09-13T13:18:46;24.90;53.30
47600;DHT22;33323;52.124;6.018;2022-09-13T13:26:54;24.90;50.10
47600;DHT22;33323;52.124;6.018;2022-09-13T13:29:29;24.60;52.80
47600;DHT22;33323;52.124;6.018;2022-09-13T13:34:42;25.20;53.70
47600;DHT22;33323;52.124;6.018;2022-09-13T13:39:47;25.00;53.30
47600;DHT22;33323;52.124;6.018;2022-09-13T13:42:26;24.70;55.20
47600;DHT22;33323;52.124;6.018;2022-09-13T13:55:39;24.50;58.10
47600;DHT22;33323;52.124;6.018;2022-09-13T13:58:25;24.50;55.30
47600;DHT22;33323;52.124;6.018;2022-09-13T14:00:59;24.30;54.60
47600;DHT22;33323;52.124;6.018;2022-09-13T14:03:40;24.10;58.00
47600;DHT22;33323;52.124;6.018;2022-09-13T14:06:36;23.90;55.40
47600;DHT22;33323;52.124;6.018;2022-09-13T14:09:29;24.00;57.20
47600;DHT22;33323;52.124;6.018;2022-09-13T14:12:19;23.90;57.50
47600;DHT22;33323;52.124;6.018;2022-09-13T14:15:21;23.60;59.00
47600;DHT22;33323;52.124;6.018;2022-09-13T14:21:02;23.50;60.70
47600;DHT22;33323;52.124;6.018;2022-09-13T14:23:31;23.60;61.90
47600;DHT22;33323;52.124;6.018;2022-09-13T14:26:00;23.60;57.90
47600;DHT22;33323;52.124;6.018;2022-09-13T14:28:27;23.60;61.70
47600;DHT22;33323;52.124;6.018;2022-09-13T14:30:57;23.70;58.10
47600;DHT22;33323;52.124;6.018;2022-09-13T14:33:35;23.90;57.50
47600;DHT22;33323;52.124;6.018;2022-09-13T14:36:12;23.90;55.70
47600;DHT22;33323;52.124;6.018;2022-09-13T14:39:10;23.60;57.80
47600;DHT22;33323;52.124;6.018;2022-09-13T14:41:37;23.70;57.30
47600;DHT22;33323;52.124;6.018;2022-09-13T14:44:20;23.70;54.50
47600;DHT22;33323;52.124;6.018;2022-09-13T14:47:05;23.60;54.00
47600;DHT22;33323;52.124;6.018;2022-09-13T14:49:42;23.90;55.60
47600;DHT22;33323;52.124;6.018;2022-09-13T14:52:29;24.00;57.90
47600;DHT22;33323;52.124;6.018;2022-09-13T14:55:02;23.90;56.10
47600;DHT22;33323;52.124;6.018;2022-09-13T14:57:42;24.10;56.80
47600;DHT22;33323;52.124;6.018;2022-09-13T15:00:17;24.10;55.10
47600;DHT22;33323;52.124;6.018;2022-09-13T15:02:54;24.10;52.00
47600;DHT22;33323;52.124;6.018;2022-09-13T15:05:32;23.80;54.00
47600;DHT22;33323;52.124;6.018;2022-09-13T15:07:59;23.40;53.40
47600;DHT22;33323;52.124;6.018;2022-09-13T15:10:31;23.60;54.60
47600;DHT22;33323;52.124;6.018;2022-09-13T15:15:42;23.80;52.90
47600;DHT22;33323;52.124;6.018;2022-09-13T15:20:52;23.70;53.80
47600;DHT22;33323;52.124;6.018;2022-09-13T15:31:07;23.40;56.10
47600;DHT22;33323;52.124;6.018;2022-09-13T15:33:34;23.20;56.90
47600;DHT22;33323;52.124;6.018;2022-09-13T15:41:32;23.30;56.80
47600;DHT22;33323;52.124;6.018;2022-09-13T15:44:02;23.30;56.70
47600;DHT22;33323;52.124;6.018;2022-09-13T15:46:33;23.20;57.80
47600;DHT22;33323;52.124;6.018;2022-09-13T15:49:15;23.20;55.80
47600;DHT22;33323;52.124;6.018;2022-09-13T15:51:43;22.90;56.40
47600;DHT22;33323;52.124;6.018;2022-09-13T15:54:15;22.90;56.30
47600;DHT22;33323;52.124;6.018;2022-09-13T15:56:45;23.00;55.60
47600;DHT22;33323;52.124;6.018;2022-09-13T15:59:14;23.00;55.60
47600;DHT22;33323;52.124;6.018;2022-09-13T16:01:43;22.80;58.80
47600;DHT22;33323;52.124;6.018;2022-09-13T16:04:11;22.80;60.80
47600;DHT22;33323;52.124;6.018;2022-09-13T16:06:38;22.80;61.50
47600;DHT22;33323;52.124;6.018;2022-09-13T16:09:20;22.60;62.00
47600;DHT22;33323;52.124;6.018;2022-09-13T16:11:50;22.30;64.70
47600;DHT22;33323;52.124;6.018;2022-09-13T16:14:18;22.00;66.80
47600;DHT22;33323;52.124;6.018;2022-09-13T16:16:45;21.80;65.90
47600;DHT22;33323;52.124;6.018;2022-09-13T16:19:18;21.70;67.40
47600;DHT22;33323;52.124;6.018;2022-09-13T16:21:47;21.70;68.30
47600;DHT22;33323;52.124;6.018;2022-09-13T16:24:15;21.60;68.80
47600;DHT22;33323;52.124;6.018;2022-09-13T16:26:43;21.50;68.10
47600;DHT22;33323;52.124;6.018;2022-09-13T16:29:11;21.60;69.50
47600;DHT22;33323;52.124;6.018;2022-09-13T16:31:38;21.50;69.00
47600;DHT22;33323;52.124;6.018;2022-09-13T16:34:06;21.50;69.80
47600;DHT22;33323;52.124;6.018;2022-09-13T16:36:33;21.40;69.60
47600;DHT22;33323;52.124;6.018;2022-09-13T16:39:00;21.40;70.80
47600;DHT22;33323;52.124;6.018;2022-09-13T16:41:27;21.30;70.40
47600;DHT22;33323;52.124;6.018;2022-09-13T16:43:54;21.40;70.60
47600;DHT22;33323;52.124;6.018;2022-09-13T16:46:21;21.20;70.90
47600;DHT22;33323;52.124;6.018;2022-09-13T16:48:52;21.10;70.10
47600;DHT22;33323;52.124;6.018;2022-09-13T16:51:20;21.20;70.70
47600;DHT22;33323;52.124;6.018;2022-09-13T16:53:49;21.10;71.90
47600;DHT22;33323;52.124;6.018;2022-09-13T16:56:19;21.10;70.90
47600;DHT22;33323;52.124;6.018;2022-09-13T16:58:49;20.90;71.80
47600;DHT22;33323;52.124;6.018;2022-09-13T17:01:27;20.80;72.60
47600;DHT22;33323;52.124;6.018;2022-09-13T17:03:56;20.80;72.00
47600;DHT22;33323;52.124;6.018;2022-09-13T17:06:24;20.60;73.20
47600;DHT22;33323;52.124;6.018;2022-09-13T17:08:55;20.60;73.90
47600;DHT22;33323;52.124;6.018;2022-09-13T17:11:27;20.60;72.60
47600;DHT22;33323;52.124;6.018;2022-09-13T17:13:56;20.50;75.00
47600;DHT22;33323;52.124;6.018;2022-09-13T17:16:30;20.30;74.20
47600;DHT22;33323;52.124;6.018;2022-09-13T17:19:02;20.20;74.90
47600;DHT22;33323;52.124;6.018;2022-09-13T17:21:31;20.10;73.50
47600;DHT22;33323;52.124;6.018;2022-09-13T17:23:59;20.00;72.30
47600;DHT22;33323;52.124;6.018;2022-09-13T17:26:27;20.00;73.30
47600;DHT22;33323;52.124;6.018;2022-09-13T17:28:54;19.80;71.60
47600;DHT22;33323;52.124;6.018;2022-09-13T17:31:22;19.80;72.90
47600;DHT22;33323;52.124;6.018;2022-09-13T17:33:49;19.80;73.30
47600;DHT22;33323;52.124;6.018;2022-09-13T17:36:19;19.70;72.00
47600;DHT22;33323;52.124;6.018;2022-09-13T17:38:46;19.60;73.10
47600;DHT22;33323;52.124;6.018;2022-09-13T17:41:16;19.50;74.20
47600;DHT22;33323;52.124;6.018;2022-09-13T17:43:45;19.50;75.20
47600;DHT22;33323;52.124;6.018;2022-09-13T17:46:19;19.50;76.30
47600;DHT22;33323;52.124;6.018;2022-09-13T17:48:48;19.40;79.00
47600;DHT22;33323;52.124;6.018;2022-09-13T17:51:20;19.40;76.30
47600;DHT22;33323;52.124;6.018;2022-09-13T17:53:56;19.30;79.10
47600;DHT22;33323;52.124;6.018;2022-09-13T17:56:34;19.30;79.00
47600;DHT22;33323;52.124;6.018;2022-09-13T17:59:11;19.10;81.30
47600;DHT22;33323;52.124;6.018;2022-09-13T18:01:44;19.10;81.20
47600;DHT22;33323;52.124;6.018;2022-09-13T18:04:14;19.20;82.20
47600;DHT22;33323;52.124;6.018;2022-09-13T18:06:42;19.00;79.00
47600;DHT22;33323;52.124;6.018;2022-09-13T18:09:09;19.00;79.30
47600;DHT22;33323;52.124;6.018;2022-09-13T18:11:37;19.00;81.10
47600;DHT22;33323;52.124;6.018;2022-09-13T18:14:05;18.90;81.20
47600;DHT22;33323;52.124;6.018;2022-09-13T18:16:32;18.90;81.30
47600;DHT22;33323;52.124;6.018;2022-09-13T18:19:00;18.90;81.20
47600;DHT22;33323;52.124;6.018;2022-09-13T18:21:27;18.80;82.00
47600;DHT22;33323;52.124;6.018;2022-09-13T18:23:56;18.80;80.80
47600;DHT22;33323;52.124;6.018;2022-09-13T18:26:26;18.80;81.90
47600;DHT22;33323;52.124;6.018;2022-09-13T18:28:56;18.80;81.30
47600;DHT22;33323;52.124;6.018;2022-09-13T18:31:28;18.70;83.60
47600;DHT22;33323;52.124;6.018;2022-09-13T18:33:59;18.70;85.60
47600;DHT22;33323;52.124;6.018;2022-09-13T18:36:28;18.70;83.90
47600;DHT22;33323;52.124;6.018;2022-09-13T18:38:56;18.70;83.90
47600;DHT22;33323;52.124;6.018;2022-09-13T18:41:29;18.50;87.60
47600;DHT22;33323;52.124;6.018;2022-09-13T18:44:07;18.40;89.70
47600;DHT22;33323;52.124;6.018;2022-09-13T18:46:36;18.60;87.60
47600;DHT22;33323;52.124;6.018;2022-09-13T18:49:06;18.60;89.00
47600;DHT22;33323;52.124;6.018;2022-09-13T18:51:36;18.60;88.70
47600;DHT22;33323;52.124;6.018;2022-09-13T18:54:09;18.50;89.00
47600;DHT22;33323;52.124;6.018;2022-09-13T18:56:39;18.30;90.90
47600;DHT22;33323;52.124;6.018;2022-09-13T18:59:08;18.10;91.50
47600;DHT22;33323;52.124;6.018;2022-09-13T19:01:38;18.10;91.60
47600;DHT22;33323;52.124;6.018;2022-09-13T19:04:16;18.10;90.20
47600;DHT22;33323;52.124;6.018;2022-09-13T19:06:48;18.20;89.30
47600;DHT22;33323;52.124;6.018;2022-09-13T19:09:18;18.20;89.30
47600;DHT22;33323;52.124;6.018;2022-09-13T19:11:48;18.10;89.00
47600;DHT22;33323;52.124;6.018;2022-09-13T19:14:25;18.10;89.70
47600;DHT22;33323;52.124;6.018;2022-09-13T19:16:55;18.10;90.10
47600;DHT22;33323;52.124;6.018;2022-09-13T19:19:26;18.00;90.30
47600;DHT22;33323;52.124;6.018;2022-09-13T19:21:56;18.00;90.30